Palmyra, Maine
Current Conditions -  °F | °C
As of 7:15 PM on Wednesday 22 Oct 2014 (Local Time) from KWVL Reporting Station
Overcast Overcast  
Wind Chill: 41°   Ceiling: 1200
Heat Index: 46°   Visibility: 10mi
Dew Point: 39°   Wind: 12mph
Humidity: 76%   Direction: 20°NNE
Pressure: 30.12"   Gusts: 24mph
Location:  44.85°N, 69.36°W
Report Text: KWVL 222315Z 02010G21KT 10SM OVC012 08/04 A3012 RMK AO1
Loading
Personal Weather Stations






























Interactive Weather Map
Tropical Storm Tracking
New forecast layout! Learn more

10-Day Weather Forecast

Advertisements
Track Severe Weather on mobile